Time;durP1;ratioP1;P1;durP2;ratioP2;P2;SDS_P1;SDS_P2;PMS_P1;PMS_P2;Temp;Humidity;BMP_temperature;BMP_pressure;BME280_temperature;BME280_humidity;BME280_pressure;Samples;Min_cycle;Max_cycle;Signal;HPM_P1;HPM_P2
2021/01/14 00:00:40;;;;;;;15.85;9.65;;;-11.00;91.40;;;;;;5012928;28;20170;-78
2021/01/14 00:03:11;;;;;;;18.08;10.07;;;-11.00;91.50;;;;;;5012837;28;20045;-78
2021/01/14 00:05:38;;;;;;;18.00;10.57;;;-11.00;91.60;;;;;;5013291;28;20037;-79
2021/01/14 00:08:05;;;;;;;10.65;5.60;;;-11.00;91.40;;;;;;5013864;28;20393;-78
2021/01/14 00:10:31;;;;;;;14.52;8.07;;;-11.00;91.20;;;;;;5013970;28;20491;-78
2021/01/14 00:12:57;;;;;;;13.93;7.03;;;-11.00;91.10;;;;;;5013454;28;20030;-78
2021/01/14 00:15:23;;;;;;;15.93;8.15;;;-11.00;90.90;;;;;;5016696;28;20029;-77
2021/01/14 00:17:49;;;;;;;15.63;9.35;;;-11.00;90.80;;;;;;5019670;28;20030;-77
2021/01/14 00:20:20;;;;;;;17.40;8.38;;;-11.00;90.90;;;;;;5015511;28;20025;-77
2021/01/14 00:22:46;;;;;;;16.38;10.25;;;-11.00;91.10;;;;;;5013151;28;20099;-77
2021/01/14 00:25:13;;;;;;;14.05;8.25;;;-11.00;91.20;;;;;;5014922;28;20506;-79
2021/01/14 00:27:39;;;;;;;10.73;6.82;;;-11.00;91.30;;;;;;4996095;28;20025;-77
2021/01/14 00:30:14;;;;;;;20.50;10.35;;;-11.00;91.00;;;;;;5009749;28;20025;-78
2021/01/14 00:32:41;;;;;;;17.83;8.65;;;-11.00;90.60;;;;;;5011369;28;20065;-78
2021/01/14 00:35:07;;;;;;;11.20;8.23;;;-11.00;90.40;;;;;;5009588;28;20405;-78
2021/01/14 00:37:51;;;;;;;19.08;11.23;;;-11.10;90.50;;;;;;5011839;28;20252;-76
2021/01/14 00:40:26;;;;;;;12.38;7.88;;;-11.10;90.70;;;;;;4982673;28;20076;-78
2021/01/14 00:42:57;;;;;;;20.10;10.27;;;-11.10;90.70;;;;;;4994948;28;20022;-78
2021/01/14 00:45:24;;;;;;;11.95;6.78;;;-11.10;90.50;;;;;;5009460;28;20014;-79
2021/01/14 00:47:50;;;;;;;12.93;7.10;;;-11.10;90.50;;;;;;5011292;28;20058;-77
2021/01/14 00:50:16;;;;;;;11.30;6.57;;;-11.10;90.70;;;;;;5009341;28;20499;-78
2021/01/14 00:52:41;;;;;;;12.63;7.95;;;-11.10;90.60;;;;;;5011721;28;20041;-78
2021/01/14 00:55:08;;;;;;;9.25;7.07;;;-11.10;90.90;;;;;;5011910;28;20108;-78
2021/01/14 00:57:35;;;;;;;11.77;6.93;;;-11.10;90.80;;;;;;5008581;28;20516;-78
2021/01/14 01:00:06;;;;;;;12.90;8.65;;;-11.10;90.50;;;;;;5009050;28;20030;-76
2021/01/14 01:02:32;;;;;;;20.88;8.95;;;-11.10;90.30;;;;;;5011005;28;20046;-78
2021/01/14 01:04:58;;;;;;;15.50;7.43;;;-11.10;90.50;;;;;;5012593;28;20093;-77
2021/01/14 01:07:24;;;;;;;11.82;6.60;;;-11.10;90.80;;;;;;5015541;28;20367;-78
2021/01/14 01:09:49;;;;;;;20.80;9.25;;;-11.10;90.80;;;;;;5012598;28;20033;-77
2021/01/14 01:12:15;;;;;;;8.27;6.07;;;-11.10;91.00;;;;;;5012194;28;20430;-78
2021/01/14 01:14:41;;;;;;;10.00;5.38;;;-11.10;90.90;;;;;;5012324;28;20022;-78
2021/01/14 01:17:07;;;;;;;15.50;9.02;;;-11.10;91.00;;;;;;5012305;28;20022;-77
2021/01/14 01:19:32;;;;;;;12.60;6.18;;;-11.10;90.80;;;;;;5012440;28;20434;-78
2021/01/14 01:21:58;;;;;;;13.32;8.85;;;-11.10;91.00;;;;;;5012197;28;20542;-76
2021/01/14 01:24:24;;;;;;;10.27;6.30;;;-11.10;90.70;;;;;;5014317;28;20029;-77
2021/01/14 01:26:51;;;;;;;10.90;6.55;;;-11.10;90.70;;;;;;5016046;28;20033;-79
2021/01/14 01:29:17;;;;;;;9.18;4.78;;;-11.10;90.90;;;;;;5016092;28;20014;-76
2021/01/14 01:31:43;;;;;;;13.55;8.25;;;-11.00;91.00;;;;;;5016340;28;20387;-76
2021/01/14 01:34:09;;;;;;;17.00;8.88;;;-11.00;90.90;;;;;;5016006;28;20033;-77
2021/01/14 01:36:35;;;;;;;9.60;5.43;;;-11.00;90.80;;;;;;5022851;28;20088;-75
2021/01/14 01:39:01;;;;;;;12.18;6.18;;;-11.00;90.80;;;;;;5020488;28;20028;-77
2021/01/14 01:41:26;;;;;;;38.05;10.07;;;-11.00;90.80;;;;;;5016274;28;20088;-75
2021/01/14 01:43:52;;;;;;;8.88;4.63;;;-11.00;91.00;;;;;;5015585;28;20030;-77
2021/01/14 01:46:28;;;;;;;16.23;9.30;;;-11.10;90.70;;;;;;5015420;28;20483;-75
2021/01/14 01:48:55;;;;;;;12.05;6.75;;;-11.10;90.80;;;;;;5015253;28;20018;-77
2021/01/14 01:51:22;;;;;;;12.15;7.20;;;-11.20;90.70;;;;;;5016213;28;20109;-77
2021/01/14 01:53:49;;;;;;;13.10;5.53;;;-11.20;90.80;;;;;;4998154;28;20088;-75
2021/01/14 01:56:17;;;;;;;11.82;7.40;;;-11.10;91.10;;;;;;4997879;28;20161;-78
2021/01/14 01:58:44;;;;;;;18.48;8.75;;;-11.10;91.20;;;;;;5015364;28;20065;-76
2021/01/14 02:01:10;;;;;;;;;;;-11.10;91.30;;;;;;5015314;28;20142;-76
2021/01/14 02:03:35;;;;;;;12.60;5.73;;;-11.10;91.00;;;;;;4991548;28;19953;-75
2021/01/14 02:06:01;;;;;;;13.68;6.30;;;-11.10;90.90;;;;;;5007572;28;20026;-75
2021/01/14 02:08:45;;;;;;;15.32;8.25;;;-11.10;91.10;;;;;;4997058;28;20030;-76
2021/01/14 02:11:38;;;;;;;12.40;5.72;;;-11.10;91.10;;;;;;5007686;28;20379;-79
2021/01/14 02:14:19;;;;;;;24.00;9.30;;;-11.10;91.00;;;;;;5007266;28;20045;-78
2021/01/14 02:16:50;;;;;;;16.35;7.97;;;-11.10;90.70;;;;;;5015538;28;20049;-78
2021/01/14 02:19:21;;;;;;;14.35;7.07;;;-11.10;90.60;;;;;;4997272;28;20022;-77
2021/01/14 02:21:49;;;;;;;12.70;7.82;;;-11.10;90.90;;;;;;5004819;28;20093;-77
2021/01/14 02:24:39;;;;;;;14.07;7.50;;;-11.10;91.10;;;;;;5014653;28;20014;-77
2021/01/14 02:27:06;;;;;;;19.90;8.98;;;-11.10;91.50;;;;;;5014098;28;20037;-77
2021/01/14 02:29:32;;;;;;;;;;;-11.10;91.20;;;;;;5015041;28;20026;-76
2021/01/14 02:31:58;;;;;;;10.20;7.22;;;-11.10;91.30;;;;;;5014452;28;20355;-77
2021/01/14 02:34:24;;;;;;;14.82;7.95;;;-11.10;91.10;;;;;;5014279;28;20052;-77
2021/01/14 02:36:49;;;;;;;10.82;6.38;;;-11.10;90.90;;;;;;4996055;28;20097;-77
2021/01/14 02:39:15;;;;;;;15.93;7.70;;;-11.10;90.90;;;;;;5014300;28;20026;-77
2021/01/14 02:41:41;;;;;;;11.82;5.95;;;-11.10;91.00;;;;;;4996612;28;20029;-77
2021/01/14 02:44:07;;;;;;;13.85;5.78;;;-11.10;91.20;;;;;;5014259;28;20029;-77
2021/01/14 02:46:33;;;;;;;12.55;6.60;;;-11.10;91.30;;;;;;5014440;28;20029;-78
2021/01/14 02:49:12;;;;;;;16.08;7.97;;;-11.00;91.30;;;;;;5014181;28;20022;-77
2021/01/14 02:51:47;;;;;;;8.07;5.28;;;-11.00;91.20;;;;;;4996622;28;20386;-76
2021/01/14 02:54:15;;;;;;;12.60;6.32;;;-11.00;90.90;;;;;;5014065;28;20044;-77
2021/01/14 02:56:41;;;;;;;12.55;7.65;;;-11.00;90.80;;;;;;5016999;28;20112;-78
2021/01/14 02:59:09;;;;;;;10.77;6.10;;;-11.00;90.80;;;;;;5010549;28;20483;-77
2021/01/14 03:01:35;;;;;;;12.70;6.20;;;-11.10;90.50;;;;;;5024593;28;20041;-76
2021/01/14 03:04:01;;;;;;;12.60;5.82;;;-11.10;90.50;;;;;;5015926;28;20034;-77
2021/01/14 03:06:27;;;;;;;13.77;6.95;;;-11.10;90.60;;;;;;4998781;28;20018;-78
2021/01/14 03:08:53;;;;;;;15.30;7.22;;;-11.00;90.80;;;;;;4995036;28;20027;-76
2021/01/14 03:11:45;;;;;;;9.77;5.22;;;-11.00;90.90;;;;;;5007661;28;20108;-76
2021/01/14 03:14:11;;;;;;;13.77;5.32;;;-10.90;90.90;;;;;;5000375;28;20042;-75
2021/01/14 03:16:38;;;;;;;15.27;6.53;;;-11.00;90.30;;;;;;5013651;28;20485;-77
2021/01/14 03:19:04;;;;;;;12.32;6.85;;;-11.00;90.10;;;;;;5013642;28;20018;-77
2021/01/14 03:21:30;;;;;;;11.88;6.80;;;-11.10;90.10;;;;;;5013668;28;20022;-77
2021/01/14 03:23:56;;;;;;;15.73;7.45;;;-11.00;90.00;;;;;;5013295;28;20491;-77
2021/01/14 03:26:22;;;;;;;14.90;7.35;;;-11.00;89.70;;;;;;5013560;28;20113;-78
2021/01/14 03:28:49;;;;;;;23.48;10.73;;;-11.10;89.80;;;;;;5013298;28;20025;-77
2021/01/14 03:31:16;;;;;;;12.73;8.90;;;-11.00;90.00;;;;;;5006386;28;20022;-80
2021/01/14 03:33:44;;;;;;;13.55;7.45;;;-11.10;89.00;;;;;;5010385;28;20049;-76
2021/01/14 03:36:15;;;;;;;11.45;7.03;;;-11.10;88.50;;;;;;4998110;28;20419;-77
2021/01/14 03:38:41;;;;;;;12.93;6.95;;;-11.10;89.00;;;;;;4998530;28;20027;-76
2021/01/14 03:41:11;;;;;;;11.75;7.05;;;-11.10;88.90;;;;;;4997815;28;20106;-76
2021/01/14 03:43:36;;;;;;;16.83;8.73;;;-11.10;88.80;;;;;;4995430;28;20031;-76
2021/01/14 03:46:11;;;;;;;40.13;12.30;;;-11.10;88.20;;;;;;4996393;28;20029;-77
2021/01/14 03:48:42;;;;;;;12.80;8.30;;;-11.10;88.00;;;;;;4995298;28;20053;-75
2021/01/14 03:51:22;;;;;;;13.25;6.75;;;-11.10;87.70;;;;;;4979668;28;20023;-78
2021/01/14 03:53:50;;;;;;;14.85;4.25;;;-11.10;87.10;;;;;;4996024;28;20117;-77
2021/01/14 03:56:16;;;;;;;15.00;7.97;;;-11.20;87.80;;;;;;4996452;28;20026;-78
2021/01/14 03:58:42;;;;;;;17.20;9.13;;;-11.20;87.70;;;;;;4994883;28;20037;-78
2021/01/14 04:01:09;;;;;;;17.73;10.25;;;-11.20;87.70;;;;;;4996200;28;20499;-76
2021/01/14 04:03:42;;;;;;;15.00;8.30;;;-11.20;86.70;;;;;;5003256;28;20029;-77
2021/01/14 04:06:09;;;;;;;12.75;8.18;;;-11.30;86.50;;;;;;5000501;28;20056;-76
2021/01/14 04:08:35;;;;;;;15.30;8.70;;;-11.30;86.60;;;;;;5008259;28;20030;-75
2021/01/14 04:11:02;;;;;;;11.48;6.45;;;-11.30;85.40;;;;;;5009241;28;20030;-78
2021/01/14 04:13:28;;;;;;;24.20;9.07;;;-11.40;85.00;;;;;;5012841;28;20029;-77
2021/01/14 04:15:54;;;;;;;14.20;7.88;;;-11.40;85.80;;;;;;5012183;28;20220;-77
2021/01/14 04:18:20;;;;;;;14.65;7.00;;;-11.40;85.90;;;;;;4999377;28;20361;-76
2021/01/14 04:20:46;;;;;;;8.70;4.93;;;-11.40;86.00;;;;;;5012690;28;20026;-77
2021/01/14 04:23:12;;;;;;;53.33;10.65;;;-11.40;86.50;;;;;;5003445;28;20039;-77
2021/01/14 04:25:38;;;;;;;9.60;6.50;;;-11.40;86.60;;;;;;4991431;28;20034;-78
2021/01/14 04:28:06;;;;;;;16.90;6.35;;;-11.50;85.90;;;;;;5010656;28;20050;-76
2021/01/14 04:30:34;;;;;;;16.00;8.85;;;-11.40;86.10;;;;;;5012131;28;20025;-75
2021/01/14 04:33:12;;;;;;;14.85;8.73;;;-11.50;86.90;;;;;;5008090;28;20404;-76
2021/01/14 04:35:52;;;;;;;13.63;6.50;;;-11.40;86.70;;;;;;5010380;28;20093;-76
2021/01/14 04:38:19;;;;;;;17.73;8.23;;;-11.50;86.40;;;;;;4999114;28;20487;-75
2021/01/14 04:40:45;;;;;;;;;;;-11.50;86.60;;;;;;5003519;28;20037;-78
2021/01/14 04:43:13;;;;;;;6.97;5.00;;;-11.50;86.00;;;;;;5001078;28;19905;-78
2021/01/14 04:45:40;;;;;;;13.45;7.97;;;-11.50;85.50;;;;;;5001207;28;20073;-76
2021/01/14 04:48:10;;;;;;;16.88;9.48;;;-11.60;85.90;;;;;;5010057;28;20045;-77
2021/01/14 04:50:37;;;;;;;13.45;6.20;;;-11.60;86.20;;;;;;4999889;28;20029;-77
2021/01/14 04:53:05;;;;;;;11.07;6.85;;;-11.60;86.00;;;;;;5003818;28;20069;-75
2021/01/14 04:55:42;;;;;;;15.77;7.72;;;-11.60;86.10;;;;;;5006769;28;20547;-76
2021/01/14 04:58:19;;;;;;;15.23;8.25;;;-11.60;86.30;;;;;;4995265;28;20586;-76
2021/01/14 05:00:51;;;;;;;15.48;7.35;;;-11.60;86.10;;;;;;5011126;28;20018;-77
2021/01/14 05:03:21;;;;;;;12.05;5.90;;;-11.60;86.10;;;;;;5000537;28;20054;-76
2021/01/14 05:05:49;;;;;;;15.27;8.73;;;-11.60;86.10;;;;;;5006189;28;20022;-76
2021/01/14 05:08:15;;;;;;;18.85;9.30;;;-11.60;86.30;;;;;;4996727;28;20030;-76
2021/01/14 05:10:44;;;;;;;18.02;7.63;;;-11.50;86.50;;;;;;5011056;28;20030;-77
2021/01/14 05:13:10;;;;;;;6.50;4.75;;;-11.50;86.00;;;;;;5009487;28;20458;-77
2021/01/14 05:15:37;;;;;;;13.27;7.35;;;-11.50;85.10;;;;;;5012649;28;20475;-76
2021/01/14 05:18:03;;;;;;;9.30;5.32;;;-11.50;84.40;;;;;;5015679;28;20459;-76
2021/01/14 05:20:29;;;;;;;12.63;6.43;;;-11.60;84.40;;;;;;5012473;28;20056;-76
2021/01/14 05:23:06;;;;;;;12.25;8.70;;;-11.60;85.10;;;;;;5012736;28;20368;-76
2021/01/14 05:25:33;;;;;;;19.13;7.90;;;-11.70;86.10;;;;;;5011770;28;20022;-78
2021/01/14 05:28:10;;;;;;;15.35;8.52;;;-11.70;85.70;;;;;;5013360;28;20026;-77
2021/01/14 05:30:36;;;;;;;10.05;6.75;;;-11.70;85.80;;;;;;5015086;28;20029;-77
2021/01/14 05:33:03;;;;;;;26.08;9.25;;;-11.70;85.00;;;;;;5017080;28;20034;-77
2021/01/14 05:35:29;;;;;;;16.65;8.40;;;-11.70;84.50;;;;;;5001482;28;20022;-77
2021/01/14 05:38:03;;;;;;;13.02;7.20;;;-11.80;84.00;;;;;;5018452;28;20018;-77
2021/01/14 05:40:30;;;;;;;15.32;8.43;;;-11.90;83.40;;;;;;5015773;28;20156;-76
2021/01/14 05:43:14;;;;;;;17.15;7.45;;;-11.90;84.20;;;;;;4997294;28;20041;-78
2021/01/14 05:45:40;;;;;;;11.20;6.25;;;-11.90;85.00;;;;;;5008999;28;20382;-77
2021/01/14 05:48:08;;;;;;;15.23;8.80;;;-12.00;85.40;;;;;;5012178;28;20034;-77
2021/01/14 05:50:43;;;;;;;14.73;6.53;;;-12.00;85.60;;;;;;4997581;28;20029;-77
2021/01/14 05:53:19;;;;;;;20.27;8.93;;;-11.90;86.00;;;;;;5012330;28;20034;-78
2021/01/14 05:55:50;;;;;;;14.50;6.07;;;-11.90;85.40;;;;;;5012018;28;20013;-76
2021/01/14 05:58:19;;;;;;;16.50;9.77;;;-11.90;84.70;;;;;;5012884;28;20049;-78
2021/01/14 06:00:47;;;;;;;17.58;8.82;;;-11.90;84.90;;;;;;5014351;28;20101;-77
2021/01/14 06:03:27;;;;;;;21.27;8.45;;;-11.90;85.50;;;;;;5013405;28;20179;-77
2021/01/14 06:05:54;;;;;;;11.35;7.65;;;-11.90;85.70;;;;;;5004418;28;20117;-75
2021/01/14 06:08:28;;;;;;;16.95;7.15;;;-11.90;86.20;;;;;;5012020;28;20014;-77
2021/01/14 06:10:55;;;;;;;19.33;8.45;;;-11.90;85.70;;;;;;5014333;28;20033;-77
2021/01/14 06:13:40;;;;;;;13.02;5.45;;;-11.80;85.90;;;;;;5007808;28;20065;-78
2021/01/14 06:16:06;;;;;;;23.40;9.55;;;-11.80;85.00;;;;;;5004157;28;20140;-78
2021/01/14 06:18:32;;;;;;;13.60;6.95;;;-11.80;84.50;;;;;;5005080;28;20065;-78
2021/01/14 06:20:58;;;;;;;18.83;10.50;;;-11.80;85.00;;;;;;4996714;28;20568;-78
2021/01/14 06:23:24;;;;;;;14.00;5.68;;;-11.80;85.00;;;;;;4996843;28;20048;-78
2021/01/14 06:25:52;;;;;;;13.38;7.32;;;-11.80;84.80;;;;;;5009208;28;20088;-79
2021/01/14 06:28:20;;;;;;;19.20;7.22;;;-11.80;85.00;;;;;;5012775;28;20074;-78
2021/01/14 06:31:03;;;;;;;14.80;7.22;;;-11.80;85.30;;;;;;5010590;28;20074;-77
2021/01/14 06:33:30;;;;;;;16.85;9.18;;;-11.80;84.20;;;;;;4998215;28;20403;-78
2021/01/14 06:36:30;;;;;;;21.08;10.05;;;-11.70;83.70;;;;;;5008089;28;20060;-80
2021/01/14 06:39:13;;;;;;;18.90;8.30;;;-11.70;84.00;;;;;;5011674;28;20390;-78
2021/01/14 06:41:41;;;;;;;21.85;8.27;;;-11.70;83.80;;;;;;5015386;28;20470;-80
2021/01/14 06:44:08;;;;;;;16.88;8.05;;;-11.70;82.80;;;;;;5013508;28;20025;-80
2021/01/14 06:46:36;;;;;;;22.48;8.63;;;-11.70;82.80;;;;;;5014042;28;20561;-77
2021/01/14 06:49:13;;;;;;;12.85;6.07;;;-11.70;82.40;;;;;;4998310;28;20030;-77
2021/01/14 06:51:51;;;;;;;12.07;5.05;;;-11.70;82.90;;;;;;5003886;28;20022;-77
2021/01/14 06:54:18;;;;;;;15.70;6.90;;;-11.70;83.50;;;;;;5013632;28;20030;-79
2021/01/14 06:56:58;;;;;;;13.55;8.20;;;-11.60;83.70;;;;;;5004458;28;20026;-77
2021/01/14 06:59:25;;;;;;;12.25;8.93;;;-11.60;83.50;;;;;;4994009;28;20098;-77
2021/01/14 07:02:32;;;;;;;11.50;6.90;;;-11.60;83.70;;;;;;4993192;28;20479;-78
2021/01/14 07:05:06;;;;;;;13.75;8.38;;;-11.60;83.40;;;;;;4990918;28;20455;-79
2021/01/14 07:07:48;;;;;;;17.40;9.50;;;-11.60;83.40;;;;;;4994164;28;20018;-79
2021/01/14 07:10:16;;;;;;;17.83;9.82;;;-11.60;82.90;;;;;;4993987;28;20030;-79
2021/01/14 07:12:44;;;;;;;14.25;6.93;;;-11.60;82.60;;;;;;4994290;28;20038;-78
2021/01/14 07:15:11;;;;;;;13.32;8.30;;;-11.50;82.50;;;;;;4994066;28;20022;-80
2021/01/14 07:17:40;;;;;;;23.33;10.35;;;-11.50;82.10;;;;;;4992905;28;20022;-78
2021/01/14 07:20:10;;;;;;;20.13;10.00;;;-11.50;81.80;;;;;;4994163;28;20048;-78
2021/01/14 07:22:43;;;;;;;20.02;8.10;;;-11.60;82.00;;;;;;4992312;28;20035;-77
2021/01/14 07:25:10;;;;;;;12.57;6.93;;;-11.60;82.40;;;;;;4993884;28;20076;-78
2021/01/14 07:27:37;;;;;;;17.92;10.13;;;-11.50;82.70;;;;;;4994198;28;20573;-80
2021/01/14 07:30:06;;;;;;;22.13;7.68;;;-11.50;82.50;;;;;;4995023;28;20065;-78
2021/01/14 07:33:04;;;;;;;12.90;5.78;;;-11.40;82.60;;;;;;4994603;28;20026;-79
2021/01/14 07:35:35;;;;;;;20.15;11.10;;;-11.40;81.40;;;;;;4997593;28;20033;-79
2021/01/14 07:38:02;;;;;;;17.20;8.23;;;-11.50;81.50;;;;;;4996406;28;20044;-79
2021/01/14 07:40:28;;;;;;;;;;;-11.40;82.10;;;;;;4994320;28;20546;-77
2021/01/14 07:42:55;;;;;;;15.02;8.02;;;-11.40;82.50;;;;;;4994469;28;19905;-79
2021/01/14 07:45:21;;;;;;;10.73;7.38;;;-11.40;83.10;;;;;;4993728;28;20035;-80
2021/01/14 07:47:47;;;;;;;14.82;8.43;;;-11.30;82.70;;;;;;4993998;28;20133;-78
2021/01/14 07:50:23;;;;;;;16.58;7.53;;;-11.20;82.90;;;;;;4992649;28;20546;-78
2021/01/14 07:52:52;;;;;;;15.77;8.70;;;-11.20;82.50;;;;;;4993434;28;20388;-79
2021/01/14 07:55:44;;;;;;;16.75;10.18;;;-11.20;81.90;;;;;;4993850;28;20033;-78
2021/01/14 07:58:13;;;;;;;21.52;9.93;;;-11.20;82.20;;;;;;4990662;28;20121;-79
2021/01/14 08:00:41;;;;;;;21.52;12.77;;;-11.20;82.40;;;;;;4993544;28;20066;-77
2021/01/14 08:03:11;;;;;;;18.60;10.95;;;-11.10;82.40;;;;;;4994848;28;20077;-78
2021/01/14 08:05:57;;;;;;;17.30;10.15;;;-11.10;81.00;;;;;;5013080;28;20014;-79
2021/01/14 08:08:36;;;;;;;19.27;8.87;;;-11.10;80.10;;;;;;4996532;28;20022;-79
2021/01/14 08:11:15;;;;;;;18.75;7.88;;;-11.10;79.80;;;;;;5012845;28;20255;-78
2021/01/14 08:14:00;;;;;;;14.82;8.23;;;-11.20;78.50;;;;;;4995083;28;20030;-79
2021/01/14 08:16:47;;;;;;;17.38;7.85;;;-11.20;79.30;;;;;;4995471;28;20116;-79
2021/01/14 08:19:28;;;;;;;;;;;-11.20;79.60;;;;;;5002779;28;20471;-79
2021/01/14 08:22:00;;;;;;;16.55;8.45;;;-11.20;79.60;;;;;;5013052;28;19905;-79
2021/01/14 08:24:47;;;;;;;14.32;6.72;;;-11.20;80.10;;;;;;4995746;28;20158;-78
2021/01/14 08:27:33;;;;;;;16.20;9.30;;;-11.10;80.80;;;;;;5012630;28;20376;-79
2021/01/14 08:30:19;;;;;;;14.63;7.80;;;-11.10;80.60;;;;;;5012714;28;20101;-79
2021/01/14 08:32:49;;;;;;;21.73;9.18;;;-11.00;80.40;;;;;;5002210;28;20121;-79
2021/01/14 08:35:15;;;;;;;15.55;8.98;;;-11.00;80.50;;;;;;4999030;28;20038;-79
2021/01/14 08:37:44;;;;;;;11.43;7.38;;;-11.00;79.70;;;;;;4998727;28;20467;-79
2021/01/14 08:40:19;;;;;;;15.85;9.05;;;-11.00;79.60;;;;;;5016574;28;20501;-80
2021/01/14 08:42:47;;;;;;;18.58;8.75;;;-10.90;80.30;;;;;;5003113;28;20088;-79
2021/01/14 08:45:14;;;;;;;17.35;8.68;;;-10.90;79.60;;;;;;5016577;28;20025;-79
2021/01/14 08:47:52;;;;;;;18.38;8.88;;;-10.90;79.30;;;;;;5016134;28;20025;-77
2021/01/14 08:50:37;;;;;;;9.27;7.43;;;-10.90;79.60;;;;;;5016791;28;20022;-79
2021/01/14 08:53:23;;;;;;;21.83;10.90;;;-10.90;79.40;;;;;;5005163;28;20041;-78
2021/01/14 08:56:03;;;;;;;18.30;10.43;;;-10.90;79.20;;;;;;5017460;28;20053;-78
2021/01/14 08:58:45;;;;;;;38.85;15.63;;;-10.90;78.40;;;;;;5016465;28;20021;-79
2021/01/14 09:01:21;;;;;;;19.17;8.70;;;-10.90;78.80;;;;;;5015993;28;20080;-79
2021/01/14 09:03:49;;;;;;;16.23;9.10;;;-11.00;78.80;;;;;;4999017;28;20163;-79
2021/01/14 09:06:16;;;;;;;21.40;9.52;;;-11.00;79.50;;;;;;5016678;28;20029;-80
2021/01/14 09:08:42;;;;;;;22.35;12.60;;;-11.00;79.90;;;;;;5003221;28;20495;-78
2021/01/14 09:11:08;;;;;;;19.15;11.15;;;-11.00;79.50;;;;;;5014889;28;20149;-78
2021/01/14 09:13:34;;;;;;;22.98;11.02;;;-11.00;79.40;;;;;;5016415;28;20026;-78
2021/01/14 09:16:10;;;;;;;18.98;8.60;;;-11.10;79.70;;;;;;5016160;28;20032;-78
2021/01/14 09:18:37;;;;;;;15.70;7.57;;;-11.10;80.50;;;;;;5016032;28;20462;-78
2021/01/14 09:21:04;;;;;;;17.48;9.50;;;-11.10;81.00;;;;;;4998308;28;20438;-79
2021/01/14 09:23:33;;;;;;;20.00;9.30;;;-11.00;81.10;;;;;;5016060;28;20018;-78
2021/01/14 09:26:00;;;;;;;17.40;11.60;;;-11.00;80.40;;;;;;4998359;28;20021;-79
2021/01/14 09:28:28;;;;;;;17.70;9.35;;;-10.90;79.50;;;;;;5016821;28;20421;-79
2021/01/14 09:30:55;;;;;;;15.73;9.88;;;-11.00;79.10;;;;;;5018123;28;20024;-79
2021/01/14 09:33:31;;;;;;;25.17;10.52;;;-11.00;79.50;;;;;;5002318;28;20084;-79
2021/01/14 09:35:59;;;;;;;20.53;8.37;;;-11.10;79.40;;;;;;5008812;28;20566;-80
2021/01/14 09:38:29;;;;;;;10.82;6.38;;;-11.10;79.60;;;;;;5002352;28;20228;-78
2021/01/14 09:40:56;;;;;;;13.98;9.25;;;-11.00;79.80;;;;;;5017135;28;20045;-78
2021/01/14 09:43:25;;;;;;;;;;;-11.10;79.20;;;;;;5016725;28;20028;-79
2021/01/14 09:45:52;;;;;;;20.23;10.07;;;-11.10;79.40;;;;;;4997431;28;19912;-79
2021/01/14 09:48:21;;;;;;;18.17;10.45;;;-11.10;79.30;;;;;;4998228;28;20013;-80
2021/01/14 09:50:53;;;;;;;16.65;9.90;;;-11.20;79.40;;;;;;5015290;28;20038;-78
2021/01/14 09:53:22;;;;;;;18.92;9.52;;;-11.10;80.10;;;;;;5015926;28;20116;-80
2021/01/14 09:55:48;;;;;;;14.48;8.60;;;-11.10;80.20;;;;;;4997759;28;20444;-79
2021/01/14 09:58:20;;;;;;;10.40;5.05;;;-11.00;80.60;;;;;;5015427;28;20026;-77
2021/01/14 10:00:51;;;;;;;13.45;6.38;;;-10.90;80.70;;;;;;5015196;28;20026;-80
2021/01/14 10:03:21;;;;;;;21.00;11.25;;;-10.90;80.80;;;;;;5015292;28;20014;-80
2021/01/14 10:05:50;;;;;;;20.80;12.88;;;-10.90;80.30;;;;;;4997832;28;20398;-78
2021/01/14 10:08:22;;;;;;;18.33;8.93;;;-10.80;79.10;;;;;;5015758;28;20033;-79
2021/01/14 10:10:51;;;;;;;14.80;9.75;;;-10.90;78.60;;;;;;5015143;28;20375;-79
2021/01/14 10:13:20;;;;;;;22.92;12.23;;;-10.90;79.40;;;;;;4981354;28;20096;-80
2021/01/14 10:15:46;;;;;;;18.67;11.60;;;-10.80;80.00;;;;;;4997294;28;20025;-78
2021/01/14 10:18:26;;;;;;;16.48;11.50;;;-10.80;80.00;;;;;;5015190;28;20364;-81
2021/01/14 10:21:01;;;;;;;18.20;10.68;;;-10.70;80.00;;;;;;5015272;28;20463;-79
2021/01/14 10:23:28;;;;;;;12.88;7.53;;;-10.70;80.00;;;;;;5014867;28;20101;-78
2021/01/14 10:25:55;;;;;;;17.70;8.48;;;-10.60;79.80;;;;;;5015055;28;20038;-81
2021/01/14 10:28:24;;;;;;;17.85;8.43;;;-10.60;79.20;;;;;;4997275;28;20073;-80
2021/01/14 10:30:51;;;;;;;8.95;5.63;;;-10.60;79.40;;;;;;5001269;28;20029;-79
2021/01/14 10:33:17;;;;;;;23.77;14.05;;;-10.60;79.80;;;;;;5015045;28;20041;-78
2021/01/14 10:35:52;;;;;;;20.85;11.05;;;-10.60;80.30;;;;;;5013264;28;20026;-77
2021/01/14 10:38:18;;;;;;;26.67;10.63;;;-10.50;80.70;;;;;;5014862;28;20152;-80
2021/01/14 10:40:51;;;;;;;19.08;9.52;;;-10.50;80.60;;;;;;5015402;28;20048;-79
2021/01/14 10:43:29;;;;;;;19.52;11.10;;;-10.40;80.50;;;;;;5016568;28;20379;-79
2021/01/14 10:45:55;;;;;;;16.13;11.02;;;-10.30;80.90;;;;;;5019575;28;20060;-80
2021/01/14 10:48:21;;;;;;;20.40;9.77;;;-10.30;80.60;;;;;;5017421;28;20025;-80
2021/01/14 10:50:55;;;;;;;17.92;9.07;;;-10.30;80.20;;;;;;4997472;28;20026;-80
2021/01/14 10:53:29;;;;;;;21.67;9.52;;;-10.20;80.20;;;;;;4996830;28;20117;-80
2021/01/14 10:56:09;;;;;;;28.23;11.75;;;-10.30;78.70;;;;;;4996643;28;20069;-80
2021/01/14 10:58:37;;;;;;;17.92;10.20;;;-10.30;78.30;;;;;;5015117;28;20033;-80
2021/01/14 11:01:03;;;;;;;;;;;-10.40;78.90;;;;;;5014018;28;20125;-80
2021/01/14 11:03:29;;;;;;;17.33;8.88;;;-10.40;79.40;;;;;;5002467;28;19905;-80
2021/01/14 11:05:58;;;;;;;11.63;7.97;;;-10.40;79.80;;;;;;5022110;28;20026;-78
2021/01/14 11:08:25;;;;;;;23.38;9.80;;;-10.40;80.00;;;;;;5014032;28;20025;-79
2021/01/14 11:11:02;;;;;;;18.40;8.80;;;-10.40;80.20;;;;;;5015159;28;20036;-80
2021/01/14 11:13:43;;;;;;;18.30;8.75;;;-10.40;79.70;;;;;;5014859;28;20395;-79
2021/01/14 11:16:12;;;;;;;24.17;9.82;;;-10.40;79.30;;;;;;5014866;28;20137;-78
2021/01/14 11:18:46;;;;;;;20.77;11.30;;;-10.40;79.40;;;;;;5014022;28;20018;-79
2021/01/14 11:21:13;;;;;;;21.30;11.05;;;-10.40;79.70;;;;;;5014061;28;20026;-81
2021/01/14 11:23:42;;;;;;;20.88;9.57;;;-10.40;79.80;;;;;;5013761;28;20017;-80
2021/01/14 11:26:09;;;;;;;22.85;9.80;;;-10.30;79.90;;;;;;4996081;28;20052;-80
2021/01/14 11:28:41;;;;;;;17.95;9.68;;;-10.30;79.50;;;;;;5013910;28;20030;-79
2021/01/14 11:31:07;;;;;;;16.42;9.55;;;-10.30;78.60;;;;;;5015156;28;20022;-78
2021/01/14 11:33:33;;;;;;;16.73;10.07;;;-10.30;78.60;;;;;;5018491;28;20088;-80
2021/01/14 11:35:59;;;;;;;21.05;10.68;;;-10.40;78.50;;;;;;5016178;28;20018;-80
2021/01/14 11:38:26;;;;;;;28.25;12.85;;;-10.40;78.40;;;;;;5014356;28;20026;-78
2021/01/14 11:40:52;;;;;;;17.85;9.98;;;-10.40;78.70;;;;;;5014039;28;20313;-80
2021/01/14 11:43:19;;;;;;;17.42;9.65;;;-10.40;79.00;;;;;;5014054;28;20026;-79
2021/01/14 11:45:45;;;;;;;16.70;8.40;;;-10.30;80.00;;;;;;5014140;28;20089;-80
2021/01/14 11:48:11;;;;;;;16.00;9.90;;;-10.30;79.40;;;;;;5014497;28;20026;-80
2021/01/14 11:50:37;;;;;;;17.67;10.18;;;-10.30;78.90;;;;;;5013491;28;20022;-79
2021/01/14 11:53:03;;;;;;;16.42;10.45;;;-10.30;78.10;;;;;;5013698;28;20049;-80
2021/01/14 11:55:29;;;;;;;18.92;9.43;;;-10.40;78.00;;;;;;5013650;28;20026;-79
2021/01/14 11:57:54;;;;;;;15.48;8.73;;;-10.40;78.40;;;;;;5013368;28;20508;-81
2021/01/14 12:00:20;;;;;;;28.65;15.40;;;-10.40;78.30;;;;;;5013918;28;20399;-80
2021/01/14 12:02:46;;;;;;;17.70;10.40;;;-10.40;78.00;;;;;;5014154;28;20133;-78
2021/01/14 12:05:12;;;;;;;18.13;10.43;;;-10.40;78.10;;;;;;5013680;28;20028;-79
2021/01/14 12:07:39;;;;;;;17.02;9.35;;;-10.50;77.80;;;;;;4995509;28;20030;-80
2021/01/14 12:10:05;;;;;;;17.52;9.40;;;-10.60;78.20;;;;;;5013116;28;20022;-79
2021/01/14 12:12:32;;;;;;;15.02;8.45;;;-10.60;78.20;;;;;;5013559;28;20022;-79
2021/01/14 12:14:58;;;;;;;9.10;5.93;;;-10.60;78.30;;;;;;5012803;28;20024;-78
2021/01/14 12:17:24;;;;;;;20.83;11.90;;;-10.70;78.20;;;;;;4995897;28;20125;-79
2021/01/14 12:19:51;;;;;;;30.85;10.43;;;-10.70;78.40;;;;;;5013078;28;20097;-80
2021/01/14 12:22:17;;;;;;;;;;;-10.70;79.00;;;;;;5015059;28;20096;-78
2021/01/14 12:24:43;;;;;;;17.13;9.03;;;-10.70;78.80;;;;;;5013121;28;19948;-79
2021/01/14 12:27:09;;;;;;;15.50;8.63;;;-10.70;78.50;;;;;;5012762;28;20113;-79
2021/01/14 12:29:37;;;;;;;14.00;8.40;;;-10.70;79.20;;;;;;5012934;28;20030;-79
2021/01/14 12:32:04;;;;;;;24.63;11.07;;;-10.70;79.60;;;;;;5012503;28;20053;-79
2021/01/14 12:34:31;;;;;;;12.90;6.78;;;-10.70;79.40;;;;;;5012599;28;20447;-79
2021/01/14 12:36:56;;;;;;;20.00;10.15;;;-10.70;78.90;;;;;;4995162;28;20034;-79
2021/01/14 12:39:23;;;;;;;16.60;8.98;;;-10.60;79.10;;;;;;5012718;28;20069;-80
2021/01/14 12:41:50;;;;;;;21.48;10.10;;;-10.70;79.60;;;;;;4995378;28;20022;-80